Time;durP1;ratioP1;P1;durP2;ratioP2;P2;SDS_P1;SDS_P2;PMS_P1;PMS_P2;Temp;Humidity;BMP_temperature;BMP_pressure;BME280_temperature;BME280_humidity;BME280_pressure;Samples;Min_cycle;Max_cycle;Signal;HPM_P1;HPM_P2
2022/01/15 00:00:38;;;;;;;1999.90;999.90;;;5.00;99.90;;;;;;5094928;28;20462;-74
2022/01/15 00:03:06;;;;;;;1999.90;999.90;;;5.10;99.90;;;;;;5094700;28;20178;-74
2022/01/15 00:05:33;;;;;;;1999.90;999.90;;;5.10;99.90;;;;;;5094595;28;20407;-74
2022/01/15 00:08:00;;;;;;;1999.90;999.90;;;5.10;99.90;;;;;;5094810;28;20419;-74
2022/01/15 00:10:27;;;;;;;1999.90;999.90;;;5.10;99.90;;;;;;5094536;28;20461;-74
2022/01/15 00:12:58;;;;;;;1999.90;999.90;;;5.10;99.90;;;;;;5093915;28;20482;-74
2022/01/15 00:15:37;;;;;;;1999.90;999.90;;;5.10;99.90;;;;;;5094204;28;20487;-74
2022/01/15 00:18:12;;;;;;;1999.90;999.90;;;5.10;99.90;;;;;;5094443;28;20452;-74
2022/01/15 00:20:38;;;;;;;1999.90;999.90;;;5.10;99.90;;;;;;5094679;28;20449;-74
2022/01/15 00:23:04;;;;;;;1999.90;999.90;;;5.10;99.90;;;;;;5094347;28;20454;-74
2022/01/15 00:25:32;;;;;;;1999.90;999.90;;;5.10;99.90;;;;;;5093799;28;20444;-74
2022/01/15 00:27:59;;;;;;;1999.90;999.90;;;5.10;99.90;;;;;;5094127;28;20504;-73
2022/01/15 00:30:25;;;;;;;1999.90;999.90;;;5.10;99.90;;;;;;5094178;28;20782;-74
2022/01/15 00:32:52;;;;;;;1999.90;999.90;;;5.10;99.90;;;;;;5094080;28;20444;-74
2022/01/15 00:35:19;;;;;;;1999.90;999.90;;;5.00;99.90;;;;;;5093586;28;20495;-74
2022/01/15 00:37:46;;;;;;;1999.90;999.90;;;4.90;99.90;;;;;;5093661;28;20456;-74
2022/01/15 00:40:14;;;;;;;1999.90;999.90;;;5.00;99.90;;;;;;5093750;28;20549;-74
2022/01/15 00:42:40;;;;;;;1999.90;999.90;;;4.90;99.90;;;;;;5059069;28;20443;-73
2022/01/15 00:45:11;;;;;;;1999.90;999.90;;;4.90;99.90;;;;;;5093388;28;20404;-74
2022/01/15 00:47:37;;;;;;;1999.90;999.90;;;4.90;99.90;;;;;;5093671;28;20408;-74
2022/01/15 00:50:04;;;;;;;1999.90;999.90;;;4.90;99.90;;;;;;5093547;28;21077;-74
2022/01/15 00:52:30;;;;;;;1999.90;999.90;;;4.90;99.90;;;;;;5090076;28;20221;-73
2022/01/15 00:54:56;;;;;;;1999.90;999.90;;;5.00;99.90;;;;;;5093227;28;20790;-72
2022/01/15 00:57:22;;;;;;;1999.90;999.90;;;5.00;99.90;;;;;;5075409;28;20263;-72
2022/01/15 00:59:47;;;;;;;1999.90;999.90;;;5.00;99.90;;;;;;5093433;28;20696;-71
2022/01/15 01:02:14;;;;;;;1999.90;999.90;;;5.10;99.90;;;;;;5093328;28;20186;-72
2022/01/15 01:04:39;;;;;;;1999.90;999.90;;;4.90;99.90;;;;;;5093083;28;20409;-73
2022/01/15 01:07:05;;;;;;;1999.90;999.90;;;4.90;99.90;;;;;;5093416;28;20461;-74
2022/01/15 01:12:32;;;;;;;1999.90;999.90;;;4.90;99.90;;;;;;5093536;28;20235;-75
2022/01/15 01:23:02;;;;;;;1999.90;999.90;;;4.80;99.90;;;;;;5093043;28;20432;-74
2022/01/15 01:25:35;;;;;;;1999.90;999.90;;;4.80;99.90;;;;;;5091647;28;20435;-75
2022/01/15 01:28:09;;;;;;;1999.90;999.90;;;4.80;99.90;;;;;;5092778;28;20173;-75
2022/01/15 01:30:46;;;;;;;1999.90;999.90;;;4.80;99.90;;;;;;5092839;28;20794;-76
2022/01/15 01:36:03;;;;;;;1999.90;999.90;;;4.80;99.90;;;;;;5092460;28;20440;-75
2022/01/15 01:38:34;;;;;;;1999.90;999.90;;;4.80;99.90;;;;;;5092467;28;20818;-76
2022/01/15 01:41:01;;;;;;;1999.90;999.90;;;4.80;99.90;;;;;;5092910;28;21062;-75
2022/01/15 01:46:31;;;;;;;1999.90;999.90;;;4.70;99.90;;;;;;5092266;28;20396;-75
2022/01/15 01:48:59;;;;;;;1999.90;999.90;;;4.70;99.90;;;;;;5092412;28;20495;-75
2022/01/15 01:51:30;;;;;;;1999.90;999.90;;;4.60;99.90;;;;;;5092189;28;20459;-74
2022/01/15 01:53:57;;;;;;;1999.90;999.90;;;4.70;99.90;;;;;;5092282;28;20408;-74
2022/01/15 01:56:23;;;;;;;1999.90;999.90;;;4.80;99.90;;;;;;5092190;28;20892;-75
2022/01/15 01:58:49;;;;;;;1999.90;999.90;;;4.70;99.90;;;;;;5092235;28;20550;-75
2022/01/15 02:01:15;;;;;;;1999.90;999.90;;;4.70;99.90;;;;;;5092109;28;20166;-76
2022/01/15 02:03:40;;;;;;;1999.90;999.90;;;4.60;99.90;;;;;;5092268;28;20173;-75
2022/01/15 02:06:06;;;;;;;1999.90;999.90;;;4.50;99.90;;;;;;5091936;28;20405;-75
2022/01/15 02:08:34;;;;;;;1999.90;999.90;;;4.50;99.90;;;;;;5092172;28;20531;-75
2022/01/15 02:11:03;;;;;;;1999.90;999.90;;;4.40;99.90;;;;;;5092142;28;20401;-76
2022/01/15 02:13:29;;;;;;;1999.90;999.90;;;4.40;99.90;;;;;;5092145;28;20249;-75
2022/01/15 02:15:57;;;;;;;1999.90;999.90;;;4.40;99.90;;;;;;5092001;28;20162;-76
2022/01/15 02:18:23;;;;;;;1999.90;999.90;;;4.40;99.90;;;;;;5091969;28;20824;-75
2022/01/15 02:21:02;;;;;;;1999.90;999.90;;;4.40;99.90;;;;;;5092057;28;20401;-75
2022/01/15 02:23:35;;;;;;;1999.90;999.90;;;4.30;99.90;;;;;;5091983;28;20170;-75
2022/01/15 02:26:05;;;;;;;1999.90;999.90;;;4.30;99.90;;;;;;5091736;28;20479;-76
2022/01/15 02:28:39;;;;;;;1999.90;999.90;;;4.20;99.90;;;;;;5091959;28;20213;-75
2022/01/15 02:31:08;;;;;;;1999.90;999.90;;;4.20;99.90;;;;;;5091901;28;20400;-76
2022/01/15 02:33:34;;;;;;;1999.90;999.90;;;4.20;99.90;;;;;;5091907;28;20191;-75
2022/01/15 02:36:02;;;;;;;1999.90;999.90;;;4.10;99.90;;;;;;5093198;28;20167;-75
2022/01/15 02:38:28;;;;;;;1999.90;999.90;;;4.10;99.90;;;;;;5095902;28;20674;-74
2022/01/15 02:40:54;;;;;;;1999.90;999.90;;;4.10;99.90;;;;;;5096000;28;20499;-74
2022/01/15 02:43:27;;;;;;;1999.90;999.90;;;4.10;99.90;;;;;;5095897;28;20285;-75
2022/01/15 02:45:55;;;;;;;1999.90;999.90;;;4.10;99.90;;;;;;5095814;28;20693;-75
2022/01/15 02:48:23;;;;;;;1999.90;999.90;;;4.00;99.90;;;;;;5096012;28;20223;-74
2022/01/15 02:50:49;;;;;;;1999.90;999.90;;;4.00;99.90;;;;;;5095853;28;20170;-75
2022/01/15 02:53:16;;;;;;;1999.90;999.90;;;3.90;99.90;;;;;;5095507;28;20439;-75
2022/01/15 02:55:43;;;;;;;1999.90;999.90;;;3.90;99.90;;;;;;5095492;28;20627;-75
2022/01/15 02:58:09;;;;;;;1999.90;999.90;;;3.80;99.90;;;;;;5095651;28;20205;-75
2022/01/15 03:00:35;;;;;;;1999.90;999.90;;;3.80;99.90;;;;;;5095655;28;20534;-74
2022/01/15 03:03:01;;;;;;;1999.90;999.90;;;3.70;99.90;;;;;;5095516;28;20186;-74
2022/01/15 03:05:26;;;;;;;1999.90;999.90;;;3.80;99.90;;;;;;5095281;28;20167;-73
2022/01/15 03:07:52;;;;;;;1999.90;999.90;;;3.80;99.90;;;;;;5095451;28;20198;-75
2022/01/15 03:10:17;;;;;;;1999.90;999.90;;;3.90;99.90;;;;;;5095489;28;20185;-75
2022/01/15 03:12:43;;;;;;;1999.90;999.90;;;3.90;99.90;;;;;;5095384;28;20534;-75
2022/01/15 03:15:10;;;;;;;1999.90;999.90;;;3.90;99.90;;;;;;5095255;28;20602;-74
2022/01/15 03:17:36;;;;;;;1999.90;999.90;;;3.90;99.90;;;;;;5095155;28;20443;-75
2022/01/15 03:20:04;;;;;;;1999.90;999.90;;;3.90;99.90;;;;;;5095269;28;20449;-75
2022/01/15 03:22:29;;;;;;;1999.90;999.90;;;3.90;99.90;;;;;;5095003;28;20201;-75
2022/01/15 03:24:55;;;;;;;1999.90;999.90;;;3.90;99.90;;;;;;5094940;28;20881;-75
2022/01/15 03:27:24;;;;;;;1999.90;999.90;;;3.90;99.90;;;;;;5095150;28;20257;-75
2022/01/15 03:29:51;;;;;;;1999.90;999.90;;;4.00;99.90;;;;;;5095091;28;20162;-75
2022/01/15 03:32:18;;;;;;;1999.90;999.90;;;4.10;99.90;;;;;;5095077;28;20610;-75
2022/01/15 03:34:44;;;;;;;1999.90;999.90;;;4.10;99.90;;;;;;5094702;28;20227;-75
2022/01/15 03:37:09;;;;;;;1999.90;999.90;;;4.10;99.90;;;;;;5094749;28;20806;-75
2022/01/15 03:39:35;;;;;;;1999.90;999.90;;;4.00;99.90;;;;;;5094994;28;20400;-73
2022/01/15 03:42:02;;;;;;;1999.90;999.90;;;4.10;99.90;;;;;;5094817;28;20209;-73
2022/01/15 03:44:28;;;;;;;1999.90;999.90;;;4.10;99.90;;;;;;5094575;28;20410;-74
2022/01/15 03:46:54;;;;;;;1999.90;999.90;;;4.00;99.90;;;;;;5094118;28;20175;-73
2022/01/15 03:49:19;;;;;;;1999.90;999.90;;;4.00;99.90;;;;;;5094604;28;20304;-73
2022/01/15 03:51:45;;;;;;;1999.90;999.90;;;4.00;99.90;;;;;;5094473;28;20212;-74
2022/01/15 03:54:10;;;;;;;1999.90;999.90;;;3.90;99.90;;;;;;5094441;28;20178;-74
2022/01/15 03:56:36;;;;;;;1999.90;999.90;;;4.00;99.90;;;;;;5094946;28;20578;-74
2022/01/15 03:59:02;;;;;;;1999.90;999.90;;;3.90;99.90;;;;;;5094582;28;20323;-74
2022/01/15 04:01:28;;;;;;;1999.90;999.90;;;3.90;99.90;;;;;;5094491;28;20216;-74
2022/01/15 04:03:53;;;;;;;1999.90;999.90;;;3.80;99.90;;;;;;5094649;28;20679;-74
2022/01/15 04:06:19;;;;;;;1999.90;999.90;;;3.90;99.90;;;;;;5094215;28;20170;-74
2022/01/15 04:08:44;;;;;;;1999.90;999.90;;;3.90;99.90;;;;;;5094561;28;20175;-74
2022/01/15 04:11:10;;;;;;;1999.90;999.90;;;3.90;99.90;;;;;;5094303;28;20640;-73
2022/01/15 04:13:35;;;;;;;1999.90;999.90;;;3.90;99.90;;;;;;5094308;28;20174;-74
2022/01/15 04:16:01;;;;;;;1999.90;999.90;;;3.80;99.90;;;;;;5094052;28;20170;-74
2022/01/15 04:18:30;;;;;;;1999.90;999.90;;;3.60;99.90;;;;;;5094255;28;20205;-74
2022/01/15 04:20:58;;;;;;;1999.90;999.90;;;3.50;99.90;;;;;;5094131;28;20170;-73
2022/01/15 04:23:23;;;;;;;1999.90;999.90;;;3.40;99.90;;;;;;5094118;28;20181;-74
2022/01/15 04:25:49;;;;;;;1999.90;999.90;;;3.30;99.90;;;;;;5093843;28;20167;-74
2022/01/15 04:28:15;;;;;;;1999.90;999.90;;;3.30;99.90;;;;;;5094091;28;20166;-74
2022/01/15 04:30:42;;;;;;;1999.90;999.90;;;3.30;99.90;;;;;;5094022;28;20243;-73
2022/01/15 04:33:08;;;;;;;1999.90;999.90;;;3.30;99.90;;;;;;5093936;28;20209;-73
2022/01/15 04:35:33;;;;;;;1999.90;999.90;;;3.10;99.90;;;;;;5093605;28;20654;-74
2022/01/15 04:38:07;;;;;;;1999.90;999.90;;;3.10;99.90;;;;;;5093833;28;20711;-74
2022/01/15 04:40:33;;;;;;;1999.90;999.90;;;3.10;99.90;;;;;;5093951;28;20170;-74
2022/01/15 04:42:58;;;;;;;1999.90;999.90;;;3.10;99.90;;;;;;5092975;28;20186;-74
2022/01/15 04:45:24;;;;;;;1999.90;999.90;;;3.20;99.90;;;;;;5093360;28;20171;-74
2022/01/15 04:47:50;;;;;;;1999.90;999.90;;;3.20;99.90;;;;;;5093779;28;20171;-74
2022/01/15 04:50:20;;;;;;;1999.90;999.90;;;3.10;99.90;;;;;;5093606;28;20177;-74
2022/01/15 04:52:46;;;;;;;1999.90;999.90;;;3.10;99.90;;;;;;5093867;28;20206;-73
2022/01/15 04:55:13;;;;;;;1999.90;999.90;;;3.10;99.90;;;;;;5093708;28;20185;-72
2022/01/15 04:57:42;;;;;;;1999.90;999.90;;;3.00;99.90;;;;;;5093417;28;20182;-72
2022/01/15 05:00:12;;;;;;;1999.90;999.90;;;2.90;99.90;;;;;;5093489;28;20171;-73
2022/01/15 05:02:38;;;;;;;1999.90;999.90;;;2.80;99.90;;;;;;5093327;28;20247;-72
2022/01/15 05:05:04;;;;;;;1999.90;999.90;;;2.90;99.90;;;;;;5093404;28;20245;-73
2022/01/15 05:07:30;;;;;;;1999.90;999.90;;;2.80;99.90;;;;;;5093382;28;20219;-72
2022/01/15 05:09:55;;;;;;;1999.90;999.90;;;2.80;99.90;;;;;;5093255;28;20543;-73
2022/01/15 05:12:44;;;;;;;1999.90;999.90;;;2.80;99.90;;;;;;5093204;28;20193;-72
2022/01/15 05:15:08;;;;;;;1999.90;999.90;;;2.80;99.90;;;;;;5092582;28;20190;-72
2022/01/15 05:17:33;;;;;;;1999.90;999.90;;;2.80;99.90;;;;;;5093025;28;20686;-74
2022/01/15 05:19:59;;;;;;;1999.90;999.90;;;2.90;99.90;;;;;;5093094;28;20162;-72
2022/01/15 05:22:25;;;;;;;1999.90;999.90;;;2.80;99.90;;;;;;5093036;28;20204;-73
2022/01/15 05:24:50;;;;;;;1999.90;999.90;;;2.80;99.90;;;;;;5092997;28;20192;-73
2022/01/15 05:27:16;;;;;;;1999.90;999.90;;;2.70;99.90;;;;;;5092941;28;20175;-73
2022/01/15 05:29:42;;;;;;;1999.90;999.90;;;2.80;99.90;;;;;;5092927;28;20245;-73
2022/01/15 05:32:08;;;;;;;1999.90;999.90;;;2.80;99.90;;;;;;5092778;28;20988;-72
2022/01/15 05:34:33;;;;;;;1999.90;999.90;;;2.70;99.90;;;;;;5092684;28;20166;-73
2022/01/15 05:36:59;;;;;;;1999.90;999.90;;;2.70;99.90;;;;;;5092703;28;20462;-72
2022/01/15 05:39:25;;;;;;;1999.90;999.90;;;2.70;99.90;;;;;;5092786;28;20170;-73
2022/01/15 05:41:50;;;;;;;1999.90;999.90;;;2.80;99.90;;;;;;5092611;28;20221;-72
2022/01/15 05:44:16;;;;;;;1999.90;999.90;;;2.80;99.90;;;;;;5092662;28;20577;-72
2022/01/15 05:46:42;;;;;;;1999.90;999.90;;;2.80;99.90;;;;;;5092637;28;20167;-73
2022/01/15 05:49:07;;;;;;;1999.90;999.90;;;2.90;99.90;;;;;;5092579;28;20182;-72
2022/01/15 05:51:33;;;;;;;1999.90;999.90;;;2.90;99.90;;;;;;5092429;28;20578;-73
2022/01/15 05:54:00;;;;;;;1999.90;999.90;;;2.80;99.90;;;;;;5092899;28;20237;-73
2022/01/15 05:56:27;;;;;;;1999.90;999.90;;;2.70;99.90;;;;;;5092508;28;20535;-72
2022/01/15 05:58:53;;;;;;;1999.90;999.90;;;2.60;99.90;;;;;;5092680;28;20638;-74
2022/01/15 06:01:18;;;;;;;1999.90;999.90;;;2.60;99.90;;;;;;5092770;28;20166;-73
2022/01/15 06:03:44;;;;;;;1999.90;999.90;;;2.60;99.90;;;;;;5093139;28;20396;-73
2022/01/15 06:06:10;;;;;;;1999.90;999.90;;;2.70;99.90;;;;;;5092737;28;20170;-72
2022/01/15 06:08:35;;;;;;;1999.90;999.90;;;2.50;99.90;;;;;;5092699;28;20166;-73
2022/01/15 06:11:01;;;;;;;1999.90;999.90;;;2.50;99.90;;;;;;5092267;28;20635;-73
2022/01/15 06:13:26;;;;;;;1999.90;999.90;;;2.50;99.90;;;;;;5092413;28;20194;-72
2022/01/15 06:15:52;;;;;;;1999.90;999.90;;;2.50;99.90;;;;;;5092148;28;20205;-72
2022/01/15 06:18:17;;;;;;;1999.90;999.90;;;2.50;99.90;;;;;;5092118;28;20260;-72
2022/01/15 06:20:43;;;;;;;1999.90;999.90;;;2.50;99.90;;;;;;5092229;28;20198;-72
2022/01/15 06:23:09;;;;;;;1999.90;999.90;;;2.40;99.90;;;;;;5092171;28;20558;-72
2022/01/15 06:25:34;;;;;;;1999.90;999.90;;;2.50;99.90;;;;;;5092092;28;20166;-72
2022/01/15 06:28:00;;;;;;;1999.90;999.90;;;2.50;99.90;;;;;;5092024;28;20216;-72
2022/01/15 06:30:25;;;;;;;1999.90;999.90;;;2.50;99.90;;;;;;5092053;28;20250;-72
2022/01/15 06:32:51;;;;;;;1999.90;999.90;;;2.60;99.90;;;;;;5091920;28;20194;-73
2022/01/15 06:35:17;;;;;;;1999.90;999.90;;;2.70;99.90;;;;;;5091943;28;20219;-72
2022/01/15 06:37:44;;;;;;;1999.90;999.90;;;2.80;99.90;;;;;;5091901;28;20194;-72
2022/01/15 06:40:10;;;;;;;1999.90;999.90;;;2.80;99.90;;;;;;5092182;28;20592;-73
2022/01/15 06:42:37;;;;;;;1999.90;999.90;;;2.90;99.90;;;;;;5091851;28;20190;-73
2022/01/15 06:45:06;;;;;;;1999.90;999.90;;;2.90;99.90;;;;;;5092071;28;20312;-73
2022/01/15 06:47:32;;;;;;;1999.90;999.90;;;2.90;99.90;;;;;;5091765;28;20169;-73
2022/01/15 06:49:57;;;;;;;1999.90;999.90;;;2.90;99.90;;;;;;5091840;28;20178;-72
2022/01/15 06:52:24;;;;;;;1999.90;999.90;;;2.90;99.90;;;;;;5091667;28;20201;-72
2022/01/15 06:54:50;;;;;;;1999.90;999.90;;;2.80;99.90;;;;;;5091808;28;20177;-72
2022/01/15 06:57:16;;;;;;;1999.90;999.90;;;2.80;99.90;;;;;;5091704;28;20539;-73
2022/01/15 06:59:44;;;;;;;1999.90;999.90;;;2.70;99.90;;;;;;5091701;28;20171;-72
2022/01/15 07:02:11;;;;;;;1999.90;999.90;;;2.70;99.90;;;;;;5091731;28;20174;-72
2022/01/15 07:04:37;;;;;;;1999.90;999.90;;;2.70;99.90;;;;;;5091694;28;20166;-73
2022/01/15 07:07:03;;;;;;;1999.90;999.90;;;2.80;99.90;;;;;;5091684;28;20167;-72
2022/01/15 07:09:28;;;;;;;1999.90;999.90;;;2.80;99.90;;;;;;5091644;28;20188;-72
2022/01/15 07:11:54;;;;;;;1999.90;999.90;;;2.80;99.90;;;;;;5091534;28;20464;-73
2022/01/15 07:14:19;;;;;;;1999.90;999.90;;;2.70;99.90;;;;;;5091667;28;20163;-72
2022/01/15 07:16:45;;;;;;;1999.90;999.90;;;2.70;99.90;;;;;;5091581;28;20553;-72
2022/01/15 07:19:11;;;;;;;1999.90;999.90;;;2.70;99.90;;;;;;5091494;28;20198;-72
2022/01/15 07:21:36;;;;;;;1999.90;999.90;;;2.70;99.90;;;;;;5091480;28;20270;-73
2022/01/15 07:24:02;;;;;;;1999.90;999.90;;;2.80;99.90;;;;;;5094595;28;20173;-72
2022/01/15 07:26:28;;;;;;;1999.90;999.90;;;2.80;99.90;;;;;;5095294;28;20167;-72
2022/01/15 07:28:53;;;;;;;1999.90;999.90;;;2.80;99.90;;;;;;5095236;28;20448;-72
2022/01/15 07:31:19;;;;;;;1999.90;999.90;;;2.80;99.90;;;;;;5095057;28;20259;-73
2022/01/15 07:33:45;;;;;;;1999.90;999.90;;;2.80;99.90;;;;;;5095270;28;20166;-74
2022/01/15 07:36:12;;;;;;;1999.90;999.90;;;2.80;99.90;;;;;;5095249;28;20666;-72
2022/01/15 07:38:38;;;;;;;1999.90;999.90;;;2.70;99.90;;;;;;5095012;28;20225;-73
2022/01/15 07:41:05;;;;;;;1999.90;999.90;;;2.70;99.90;;;;;;5095123;28;20190;-72
2022/01/15 07:43:31;;;;;;;1999.90;999.90;;;2.80;99.90;;;;;;5094886;28;20186;-72
2022/01/15 07:45:57;;;;;;;1999.90;999.90;;;2.70;99.90;;;;;;5094829;28;20167;-72
2022/01/15 07:48:22;;;;;;;1999.90;999.90;;;2.70;99.90;;;;;;5095140;28;20255;-72
2022/01/15 07:50:48;;;;;;;1999.90;999.90;;;2.70;99.90;;;;;;5094901;28;20162;-72
2022/01/15 07:53:14;;;;;;;1999.90;999.90;;;2.70;99.90;;;;;;5076539;28;20274;-72
2022/01/15 07:55:39;;;;;;;1999.90;999.90;;;2.70;99.90;;;;;;5094772;28;20573;-73
2022/01/15 07:58:05;;;;;;;1999.90;999.90;;;2.70;99.90;;;;;;5094715;28;20194;-72
2022/01/15 08:00:32;;;;;;;1999.90;999.90;;;2.70;99.90;;;;;;5094668;28;20162;-72
2022/01/15 08:02:57;;;;;;;1999.90;999.90;;;2.60;99.90;;;;;;5094298;28;20191;-73
2022/01/15 08:05:23;;;;;;;1999.90;999.90;;;2.60;99.90;;;;;;5094581;28;20686;-72
2022/01/15 08:07:48;;;;;;;1999.90;999.90;;;2.60;99.90;;;;;;5094541;28;20170;-72
2022/01/15 08:10:15;;;;;;;1999.90;999.90;;;2.70;99.90;;;;;;5094489;28;20185;-73
2022/01/15 08:12:49;;;;;;;1999.90;999.90;;;2.70;99.90;;;;;;5094063;28;20182;-75
2022/01/15 08:15:19;;;;;;;1999.90;999.90;;;2.60;99.90;;;;;;5094079;28;20171;-74
2022/01/15 08:17:45;;;;;;;1999.90;999.90;;;2.60;99.90;;;;;;5094368;28;20189;-74
2022/01/15 08:20:12;;;;;;;1999.90;999.90;;;2.60;99.90;;;;;;5094182;28;20166;-75
2022/01/15 08:22:40;;;;;;;1999.90;999.90;;;2.60;99.90;;;;;;5094055;28;20447;-75
2022/01/15 08:25:07;;;;;;;1999.90;999.90;;;2.60;99.90;;;;;;5093843;28;20196;-74
2022/01/15 08:27:32;;;;;;;1999.90;999.90;;;2.70;99.90;;;;;;5094046;28;20597;-75
2022/01/15 08:29:58;;;;;;;1999.90;999.90;;;2.70;99.90;;;;;;5093951;28;20243;-74
2022/01/15 08:32:23;;;;;;;1999.90;999.90;;;2.70;99.90;;;;;;5094435;28;20226;-74
2022/01/15 08:34:49;;;;;;;1999.90;999.90;;;2.70;99.90;;;;;;5093216;28;20619;-75
2022/01/15 08:37:15;;;;;;;1999.90;999.90;;;2.70;99.90;;;;;;5093796;28;20182;-74
2022/01/15 08:39:40;;;;;;;1999.90;999.90;;;2.80;99.90;;;;;;5093839;28;20166;-74
2022/01/15 08:42:07;;;;;;;1999.90;999.90;;;2.70;99.90;;;;;;5093733;28;20194;-75
2022/01/15 08:44:33;;;;;;;1999.90;999.90;;;2.70;99.90;;;;;;5093434;28;20166;-74
2022/01/15 08:47:02;;;;;;;1999.90;999.90;;;2.80;99.90;;;;;;5093704;28;20167;-74
2022/01/15 08:49:28;;;;;;;1999.90;999.90;;;2.80;99.90;;;;;;5094156;28;20257;-74
2022/01/15 08:51:54;;;;;;;1999.90;999.90;;;2.70;99.90;;;;;;5093835;28;20241;-74
2022/01/15 08:54:19;;;;;;;1999.90;999.90;;;2.70;99.90;;;;;;5093940;28;20406;-73
2022/01/15 08:56:45;;;;;;;1999.90;999.90;;;2.60;99.90;;;;;;5094008;28;20434;-74
2022/01/15 08:59:11;;;;;;;1999.90;999.90;;;2.70;99.90;;;;;;5093603;28;20201;-74
2022/01/15 09:01:37;;;;;;;1999.90;999.90;;;2.70;99.90;;;;;;5093541;28;20229;-74
2022/01/15 09:04:02;;;;;;;1999.90;999.90;;;2.80;99.90;;;;;;5093159;28;20624;-74
2022/01/15 09:06:28;;;;;;;1999.90;999.90;;;2.90;99.90;;;;;;5093579;28;20396;-74
2022/01/15 09:08:54;;;;;;;1999.90;999.90;;;3.00;99.90;;;;;;5093411;28;20397;-74
2022/01/15 09:11:20;;;;;;;1999.90;999.90;;;3.00;99.90;;;;;;5093340;28;20249;-74
2022/01/15 09:13:47;;;;;;;1999.90;999.90;;;3.00;99.90;;;;;;5093541;28;20170;-73
2022/01/15 09:16:13;;;;;;;1999.90;999.90;;;3.00;99.90;;;;;;5093265;28;20415;-74
2022/01/15 09:18:38;;;;;;;1999.90;999.90;;;3.10;99.90;;;;;;5093341;28;20194;-73
2022/01/15 09:21:04;;;;;;;1999.90;999.90;;;3.00;99.90;;;;;;5093121;28;20159;-73
2022/01/15 09:23:30;;;;;;;1999.90;999.90;;;3.10;99.90;;;;;;5093039;28;20632;-73
2022/01/15 09:25:57;;;;;;;1999.90;999.90;;;3.10;99.90;;;;;;5092882;28;20162;-74
2022/01/15 09:31:08;;;;;;;1999.90;999.90;;;3.10;99.90;;;;;;5092880;28;20181;-74
2022/01/15 09:33:33;;;;;;;1999.90;999.90;;;3.10;99.90;;;;;;5092951;28;20538;-74
2022/01/15 09:35:59;;;;;;;1999.90;999.90;;;3.20;99.90;;;;;;5092545;28;20540;-75
2022/01/15 09:38:24;;;;;;;1999.90;999.90;;;3.20;99.90;;;;;;5092717;28;20197;-75
2022/01/15 09:40:50;;;;;;;1999.90;999.90;;;3.30;99.90;;;;;;5092752;28;20623;-74
2022/01/15 09:43:16;;;;;;;1999.90;999.90;;;3.30;99.90;;;;;;5092655;28;20201;-75
2022/01/15 09:45:43;;;;;;;1999.90;999.90;;;3.40;99.90;;;;;;5091560;28;20162;-75
2022/01/15 09:48:09;;;;;;;1999.90;999.90;;;3.40;99.90;;;;;;5092731;28;20166;-74
2022/01/15 09:50:38;;;;;;;1999.90;999.90;;;3.40;99.90;;;;;;5092499;28;20295;-74
2022/01/15 09:53:04;;;;;;;1999.90;999.90;;;3.40;99.90;;;;;;5092224;28;20957;-74
2022/01/15 09:55:30;;;;;;;1999.90;999.90;;;3.40;99.90;;;;;;5092123;28;20181;-75
2022/01/15 09:57:56;;;;;;;1999.90;999.90;;;3.40;99.90;;;;;;5092221;28;20194;-74
2022/01/15 10:00:24;;;;;;;1999.90;999.90;;;3.40;99.90;;;;;;5092372;28;20215;-75
2022/01/15 10:02:52;;;;;;;1999.90;999.90;;;3.30;99.90;;;;;;5092277;28;20272;-75
2022/01/15 10:05:18;;;;;;;1999.90;999.90;;;3.30;99.90;;;;;;5092052;28;20180;-75
2022/01/15 10:08:04;;;;;;;1999.90;999.90;;;3.20;99.90;;;;;;5092306;28;20162;-75
2022/01/15 10:10:32;;;;;;;1999.90;999.90;;;3.10;99.90;;;;;;5092196;28;20219;-75
2022/01/15 10:13:12;;;;;;;1999.90;999.90;;;3.10;99.90;;;;;;5092099;28;20550;-75
2022/01/15 10:15:37;;;;;;;1999.90;999.90;;;3.00;99.90;;;;;;5092130;28;20220;-74
2022/01/15 10:18:24;;;;;;;1999.90;999.90;;;3.10;99.90;;;;;;5092099;28;20190;-74
2022/01/15 10:20:51;;;;;;;1999.90;999.90;;;3.20;99.90;;;;;;5091964;28;20178;-75
2022/01/15 10:23:19;;;;;;;1999.90;999.90;;;3.20;99.90;;;;;;5091988;28;20607;-75
2022/01/15 10:25:45;;;;;;;1999.90;999.90;;;3.30;99.90;;;;;;5091833;28;20785;-75
2022/01/15 10:28:11;;;;;;;1999.90;999.90;;;3.30;99.90;;;;;;5091938;28;20181;-75
2022/01/15 10:30:38;;;;;;;1999.90;999.90;;;3.30;99.90;;;;;;5092041;28;20589;-73
2022/01/15 10:33:09;;;;;;;1999.90;999.90;;;3.40;99.90;;;;;;5092252;28;20186;-75
2022/01/15 10:35:38;;;;;;;1999.90;999.90;;;3.40;99.90;;;;;;5091679;28;20162;-75
2022/01/15 10:38:09;;;;;;;1999.90;999.90;;;3.30;99.90;;;;;;5091984;28;20236;-74
2022/01/15 10:40:38;;;;;;;1999.90;999.90;;;3.30;99.90;;;;;;5091955;28;20158;-73
2022/01/15 10:43:03;;;;;;;1999.90;999.90;;;3.20;99.90;;;;;;5091715;28;20188;-73
2022/01/15 10:45:31;;;;;;;1999.90;999.90;;;3.20;99.90;;;;;;5092026;28;20257;-73
2022/01/15 10:48:00;;;;;;;1999.90;999.90;;;3.30;99.90;;;;;;5091774;28;20162;-74
2022/01/15 10:50:35;;;;;;;1999.90;999.90;;;3.40;99.90;;;;;;5091738;28;20182;-75
2022/01/15 10:53:10;;;;;;;1999.90;999.90;;;3.40;99.90;;;;;;5092077;28;20205;-73
2022/01/15 10:55:36;;;;;;;1999.90;999.90;;;3.40;99.90;;;;;;5091522;28;20430;-73
2022/01/15 10:58:07;;;;;;;1999.90;999.90;;;3.50;99.90;;;;;;5094927;28;20229;-73
2022/01/15 11:00:49;;;;;;;1999.90;999.90;;;3.50;99.90;;;;;;5095837;28;20193;-73
2022/01/15 11:03:17;;;;;;;1999.90;999.90;;;3.60;99.90;;;;;;5095834;28;20194;-73
2022/01/15 11:05:50;;;;;;;1999.90;999.90;;;3.60;99.90;;;;;;5095552;28;20218;-73
2022/01/15 11:08:17;;;;;;;1999.90;999.90;;;3.70;99.90;;;;;;5095570;28;20241;-73
2022/01/15 11:10:54;;;;;;;1999.90;999.90;;;3.90;99.90;;;;;;5095528;28;20177;-73
2022/01/15 11:13:26;;;;;;;1999.90;999.90;;;4.00;99.90;;;;;;5095638;28;20574;-73
2022/01/15 11:15:59;;;;;;;1999.90;999.90;;;4.10;99.90;;;;;;5095276;28;20644;-73
2022/01/15 11:18:33;;;;;;;1999.90;999.90;;;4.10;99.90;;;;;;5095331;28;20278;-73
2022/01/15 11:21:02;;;;;;;1999.90;999.90;;;4.10;99.90;;;;;;5095401;28;20173;-73
2022/01/15 11:23:30;;;;;;;1999.90;999.90;;;4.20;99.90;;;;;;5095235;28;20664;-73
2022/01/15 11:25:59;;;;;;;1999.90;999.90;;;4.20;99.90;;;;;;5094970;28;20643;-72
2022/01/15 11:28:27;;;;;;;1999.90;999.90;;;4.40;99.90;;;;;;5095267;28;20584;-73
2022/01/15 11:30:56;;;;;;;1999.90;999.90;;;4.30;99.90;;;;;;5095288;28;20174;-72
2022/01/15 11:33:35;;;;;;;1999.90;999.90;;;4.20;99.90;;;;;;5095163;28;20755;-72
2022/01/15 11:36:01;;;;;;;1999.90;999.90;;;4.30;99.90;;;;;;5095186;28;20182;-73
2022/01/15 11:38:39;;;;;;;1999.90;999.90;;;4.30;99.90;;;;;;5095014;28;20447;-73
2022/01/15 11:41:05;;;;;;;1999.90;999.90;;;4.30;99.90;;;;;;5094963;28;20404;-72
2022/01/15 11:43:31;;;;;;;1999.90;999.90;;;4.40;99.90;;;;;;5094959;28;20171;-73
2022/01/15 11:46:02;;;;;;;1999.90;999.90;;;4.40;99.90;;;;;;5095148;28;20193;-73
2022/01/15 11:48:35;;;;;;;1999.90;999.90;;;4.50;99.90;;;;;;5094934;28;20234;-73
2022/01/15 11:51:24;;;;;;;1999.90;999.90;;;4.60;99.90;;;;;;5094907;28;20301;-74
2022/01/15 11:54:00;;;;;;;1999.90;999.90;;;4.60;99.90;;;;;;5094837;28;20399;-72
2022/01/15 11:56:37;;;;;;;1999.90;999.90;;;4.60;99.90;;;;;;5076829;28;20164;-73
2022/01/15 11:59:25;;;;;;;1999.90;999.90;;;4.70;99.90;;;;;;5094671;28;20207;-73
2022/01/15 12:01:53;;;;;;;1999.90;999.90;;;4.70;99.90;;;;;;5094621;28;20414;-73
2022/01/15 12:04:38;;;;;;;1999.90;999.90;;;4.70;99.90;;;;;;5094555;28;20468;-73
2022/01/15 12:07:06;;;;;;;1999.90;999.90;;;4.70;99.90;;;;;;5094834;28;20170;-74
2022/01/15 12:09:36;;;;;;;1999.90;999.90;;;4.70;99.90;;;;;;5093675;28;20416;-74
2022/01/15 12:15:02;;;;;;;1999.90;999.90;;;4.40;99.90;;;;;;5094075;28;20225;-74
2022/01/15 12:17:39;;;;;;;1999.90;999.90;;;4.50;99.90;;;;;;5094253;28;20779;-74
2022/01/15 12:20:05;;;;;;;1999.90;999.90;;;4.50;99.90;;;;;;5094277;28;20764;-74
2022/01/15 12:22:39;;;;;;;1999.90;999.90;;;4.60;99.90;;;;;;5094305;28;20423;-74
2022/01/15 12:25:12;;;;;;;1999.90;999.90;;;4.70;99.90;;;;;;5093810;28;20538;-74
2022/01/15 12:27:39;;;;;;;1999.90;999.90;;;4.70;99.90;;;;;;5094166;28;20427;-74
2022/01/15 12:30:16;;;;;;;1999.90;999.90;;;4.80;99.90;;;;;;5093995;28;20409;-73
2022/01/15 12:32:45;;;;;;;1999.90;999.90;;;4.80;99.90;;;;;;5094026;28;20193;-73